sensor_id;sensor_type;location;lat;lon;timestamp;pressure;altitude;pressure_sealevel;temperature;humidity
61345;BME280;47216;42.656;23.232;2023-02-12T00:01:01;94843.03;;;-0.78;48.76
61345;BME280;47216;42.656;23.232;2023-02-12T00:03:28;94838.19;;;-0.81;48.69
61345;BME280;47216;42.656;23.232;2023-02-12T00:05:54;94844.59;;;-0.85;48.52
61345;BME280;47216;42.656;23.232;2023-02-12T00:08:25;94842.13;;;-0.69;47.95
61345;BME280;47216;42.656;23.232;2023-02-12T00:10:52;94837.31;;;-0.64;48.53
61345;BME280;47216;42.656;23.232;2023-02-12T00:13:18;94839.75;;;-0.62;47.96
61345;BME280;47216;42.656;23.232;2023-02-12T00:15:45;94844.59;;;-0.51;45.97
61345;BME280;47216;42.656;23.232;2023-02-12T00:18:13;94835.72;;;-0.22;44.96
61345;BME280;47216;42.656;23.232;2023-02-12T00:20:39;94839.28;;;-0.07;45.03
61345;BME280;47216;42.656;23.232;2023-02-12T00:23:06;94829.34;;;-0.02;43.63
61345;BME280;47216;42.656;23.232;2023-02-12T00:25:33;94826.81;;;0.15;43.95
61345;BME280;47216;42.656;23.232;2023-02-12T00:27:59;94822.31;;;0.25;44.92
61345;BME280;47216;42.656;23.232;2023-02-12T00:30:26;94827.16;;;0.28;44.00
61345;BME280;47216;42.656;23.232;2023-02-12T00:32:53;94839.94;;;0.20;45.29
61345;BME280;47216;42.656;23.232;2023-02-12T00:35:20;94826.00;;;0.23;43.94
61345;BME280;47216;42.656;23.232;2023-02-12T00:37:47;94815.59;;;0.24;45.32
61345;BME280;47216;42.656;23.232;2023-02-12T00:40:13;94814.78;;;0.07;45.06
61345;BME280;47216;42.656;23.232;2023-02-12T00:42:40;94815.59;;;0.08;44.78
61345;BME280;47216;42.656;23.232;2023-02-12T00:45:08;94797.16;;;0.12;44.87
61345;BME280;47216;42.656;23.232;2023-02-12T00:47:34;94801.97;;;0.07;44.90
61345;BME280;47216;42.656;23.232;2023-02-12T00:50:01;94802.75;;;0.16;44.64
61345;BME280;47216;42.656;23.232;2023-02-12T00:52:29;94793.78;;;0.20;44.21
61345;BME280;47216;42.656;23.232;2023-02-12T00:54:55;94793.16;;;0.26;45.25
61345;BME280;47216;42.656;23.232;2023-02-12T00:57:22;94785.78;;;0.23;45.41
61345;BME280;47216;42.656;23.232;2023-02-12T00:59:48;94788.03;;;0.18;45.32
61345;BME280;47216;42.656;23.232;2023-02-12T01:02:15;94786.09;;;0.20;45.51
61345;BME280;47216;42.656;23.232;2023-02-12T01:04:42;94773.59;;;0.09;46.29
61345;BME280;47216;42.656;23.232;2023-02-12T01:07:08;94769.13;;;0.03;46.05
61345;BME280;47216;42.656;23.232;2023-02-12T01:09:36;94783.38;;;0.05;46.42
61345;BME280;47216;42.656;23.232;2023-02-12T01:12:03;94777.09;;;-0.01;46.42
61345;BME280;47216;42.656;23.232;2023-02-12T01:14:30;94790.13;;;0.14;44.96
61345;BME280;47216;42.656;23.232;2023-02-12T01:16:56;94787.25;;;0.26;45.33
61345;BME280;47216;42.656;23.232;2023-02-12T01:19:23;94781.59;;;0.38;44.53
61345;BME280;47216;42.656;23.232;2023-02-12T01:21:49;94781.78;;;0.45;45.42
61345;BME280;47216;42.656;23.232;2023-02-12T01:24:16;94780.31;;;0.34;45.89
61345;BME280;47216;42.656;23.232;2023-02-12T01:26:43;94792.34;;;0.34;45.69
61345;BME280;47216;42.656;23.232;2023-02-12T01:29:10;94790.59;;;0.43;45.15
61345;BME280;47216;42.656;23.232;2023-02-12T01:31:37;94788.03;;;0.43;46.30
61345;BME280;47216;42.656;23.232;2023-02-12T01:34:05;94789.94;;;0.40;46.05
61345;BME280;47216;42.656;23.232;2023-02-12T01:36:32;94796.69;;;0.33;46.14
61345;BME280;47216;42.656;23.232;2023-02-12T01:38:58;94792.50;;;0.32;47.00
61345;BME280;47216;42.656;23.232;2023-02-12T01:41:27;94781.16;;;0.35;45.87
61345;BME280;47216;42.656;23.232;2023-02-12T01:44:06;94780.31;;;0.34;46.24
61345;BME280;47216;42.656;23.232;2023-02-12T01:46:33;94774.53;;;0.32;45.97
61345;BME280;47216;42.656;23.232;2023-02-12T01:49:00;94767.34;;;0.36;46.67
61345;BME280;47216;42.656;23.232;2023-02-12T01:51:27;94765.75;;;0.27;46.05
61345;BME280;47216;42.656;23.232;2023-02-12T01:53:54;94768.47;;;0.33;46.44
61345;BME280;47216;42.656;23.232;2023-02-12T01:56:23;94752.75;;;0.36;46.36
61345;BME280;47216;42.656;23.232;2023-02-12T01:58:51;94756.09;;;0.37;46.86
61345;BME280;47216;42.656;23.232;2023-02-12T02:01:22;94759.81;;;0.34;46.63
61345;BME280;47216;42.656;23.232;2023-02-12T02:03:50;94755.63;;;0.41;47.33
61345;BME280;47216;42.656;23.232;2023-02-12T02:06:18;94772.31;;;0.46;47.52
61345;BME280;47216;42.656;23.232;2023-02-12T02:08:45;94766.38;;;0.29;47.49
61345;BME280;47216;42.656;23.232;2023-02-12T02:11:12;94757.91;;;0.28;47.72
61345;BME280;47216;42.656;23.232;2023-02-12T02:13:56;94769.91;;;0.28;47.42
61345;BME280;47216;42.656;23.232;2023-02-12T02:16:45;94768.94;;;0.37;46.75
61345;BME280;47216;42.656;23.232;2023-02-12T02:19:18;94765.88;;;0.41;46.70
61345;BME280;47216;42.656;23.232;2023-02-12T02:22:10;94760.44;;;0.45;47.03
61345;BME280;47216;42.656;23.232;2023-02-12T02:27:25;94761.56;;;0.50;46.94
61345;BME280;47216;42.656;23.232;2023-02-12T02:32:42;94759.13;;;0.57;47.10
61345;BME280;47216;42.656;23.232;2023-02-12T02:35:15;94754.81;;;0.57;47.71
61345;BME280;47216;42.656;23.232;2023-02-12T02:37:46;94747.59;;;0.53;47.92
61345;BME280;47216;42.656;23.232;2023-02-12T02:40:13;94749.84;;;0.56;48.05
61345;BME280;47216;42.656;23.232;2023-02-12T02:42:43;94761.38;;;0.60;47.98
61345;BME280;47216;42.656;23.232;2023-02-12T02:45:12;94760.56;;;0.68;48.11
61345;BME280;47216;42.656;23.232;2023-02-12T02:47:43;94758.16;;;0.66;48.24
61345;BME280;47216;42.656;23.232;2023-02-12T02:50:11;94751.09;;;0.68;47.94
61345;BME280;47216;42.656;23.232;2023-02-12T02:52:40;94753.53;;;0.70;48.34
61345;BME280;47216;42.656;23.232;2023-02-12T02:55:07;94755.59;;;0.74;48.55
61345;BME280;47216;42.656;23.232;2023-02-12T02:57:37;94756.72;;;0.63;48.61
61345;BME280;47216;42.656;23.232;2023-02-12T03:00:07;94752.06;;;0.75;48.59
61345;BME280;47216;42.656;23.232;2023-02-12T03:02:37;94757.81;;;0.69;48.66
61345;BME280;47216;42.656;23.232;2023-02-12T03:05:07;94751.09;;;0.68;48.93
61345;BME280;47216;42.656;23.232;2023-02-12T03:07:35;94749.53;;;0.67;48.97
61345;BME280;47216;42.656;23.232;2023-02-12T03:10:05;94748.53;;;0.68;49.14
61345;BME280;47216;42.656;23.232;2023-02-12T03:12:35;94755.25;;;0.69;49.09
61345;BME280;47216;42.656;23.232;2023-02-12T03:15:04;94753.81;;;0.67;49.25
61345;BME280;47216;42.656;23.232;2023-02-12T03:17:31;94754.91;;;0.80;49.32
61345;BME280;47216;42.656;23.232;2023-02-12T03:20:02;94753.00;;;0.82;49.36
61345;BME280;47216;42.656;23.232;2023-02-12T03:22:32;94758.44;;;0.88;49.24
61345;BME280;47216;42.656;23.232;2023-02-12T03:25:00;94754.28;;;0.87;49.29
61345;BME280;47216;42.656;23.232;2023-02-12T03:27:30;94753.63;;;0.93;49.12
61345;BME280;47216;42.656;23.232;2023-02-12T03:29:57;94748.63;;;0.99;49.43
61345;BME280;47216;42.656;23.232;2023-02-12T03:32:27;94744.28;;;1.00;49.49
61345;BME280;47216;42.656;23.232;2023-02-12T03:35:00;94738.81;;;1.03;49.35
61345;BME280;47216;42.656;23.232;2023-02-12T03:37:33;94739.16;;;0.92;49.63
61345;BME280;47216;42.656;23.232;2023-02-12T03:40:04;94733.09;;;0.93;49.74
61345;BME280;47216;42.656;23.232;2023-02-12T03:42:34;94733.53;;;0.96;49.72
61345;BME280;47216;42.656;23.232;2023-02-12T03:45:06;94738.00;;;1.02;49.53
61345;BME280;47216;42.656;23.232;2023-02-12T03:47:37;94741.47;;;1.18;49.66
61345;BME280;47216;42.656;23.232;2023-02-12T03:50:05;94741.16;;;1.21;49.18
61345;BME280;47216;42.656;23.232;2023-02-12T03:52:36;94734.53;;;1.26;49.24
61345;BME280;47216;42.656;23.232;2023-02-12T03:55:03;94740.16;;;1.30;49.15
61345;BME280;47216;42.656;23.232;2023-02-12T03:57:30;94740.94;;;1.31;48.97
61345;BME280;47216;42.656;23.232;2023-02-12T04:00:00;94739.22;;;1.23;49.24
61345;BME280;47216;42.656;23.232;2023-02-12T04:02:27;94738.09;;;1.25;49.06
61345;BME280;47216;42.656;23.232;2023-02-12T04:04:54;94742.59;;;1.23;49.60
61345;BME280;47216;42.656;23.232;2023-02-12T04:07:20;94731.34;;;1.24;48.18
61345;BME280;47216;42.656;23.232;2023-02-12T04:09:48;94730.69;;;1.22;48.79
61345;BME280;47216;42.656;23.232;2023-02-12T04:12:26;94730.19;;;1.27;49.51
61345;BME280;47216;42.656;23.232;2023-02-12T04:14:59;94736.06;;;1.44;48.87
61345;BME280;47216;42.656;23.232;2023-02-12T04:17:31;94744.50;;;1.30;48.02
61345;BME280;47216;42.656;23.232;2023-02-12T04:20:04;94740.31;;;1.29;48.58
61345;BME280;47216;42.656;23.232;2023-02-12T04:22:45;94749.31;;;1.24;49.22
61345;BME280;47216;42.656;23.232;2023-02-12T04:25:19;94748.78;;;1.37;48.88
61345;BME280;47216;42.656;23.232;2023-02-12T04:27:47;94754.78;;;1.30;48.76
61345;BME280;47216;42.656;23.232;2023-02-12T04:30:18;94750.75;;;1.27;48.70
61345;BME280;47216;42.656;23.232;2023-02-12T04:32:46;94758.78;;;1.32;48.80
61345;BME280;47216;42.656;23.232;2023-02-12T04:35:15;94753.16;;;1.29;49.31
61345;BME280;47216;42.656;23.232;2023-02-12T04:37:44;94762.59;;;1.36;49.17
61345;BME280;47216;42.656;23.232;2023-02-12T04:40:14;94762.47;;;1.30;48.26
61345;BME280;47216;42.656;23.232;2023-02-12T04:42:44;94752.00;;;1.31;48.40
61345;BME280;47216;42.656;23.232;2023-02-12T04:45:11;94759.50;;;1.41;48.17
61345;BME280;47216;42.656;23.232;2023-02-12T04:47:39;94765.28;;;1.43;48.53
61345;BME280;47216;42.656;23.232;2023-02-12T04:50:06;94766.09;;;1.43;48.30
61345;BME280;47216;42.656;23.232;2023-02-12T04:52:33;94774.25;;;1.55;48.49
61345;BME280;47216;42.656;23.232;2023-02-12T04:54:59;94777.09;;;1.60;48.45
61345;BME280;47216;42.656;23.232;2023-02-12T04:57:26;94778.69;;;1.61;48.18
61345;BME280;47216;42.656;23.232;2023-02-12T04:59:54;94786.59;;;1.60;48.01
61345;BME280;47216;42.656;23.232;2023-02-12T05:02:20;94786.47;;;1.45;47.91
61345;BME280;47216;42.656;23.232;2023-02-12T05:04:47;94780.03;;;1.49;47.48
61345;BME280;47216;42.656;23.232;2023-02-12T05:07:14;94783.81;;;1.61;47.92
61345;BME280;47216;42.656;23.232;2023-02-12T05:09:40;94790.97;;;1.51;47.86
61345;BME280;47216;42.656;23.232;2023-02-12T05:12:07;94790.31;;;1.49;47.92
61345;BME280;47216;42.656;23.232;2023-02-12T05:14:33;94803.00;;;1.51;47.58
61345;BME280;47216;42.656;23.232;2023-02-12T05:17:01;94795.47;;;1.49;47.60
61345;BME280;47216;42.656;23.232;2023-02-12T05:19:28;94792.25;;;1.47;48.55
61345;BME280;47216;42.656;23.232;2023-02-12T05:21:54;94806.75;;;1.40;49.41
61345;BME280;47216;42.656;23.232;2023-02-12T05:24:21;94816.72;;;1.35;49.43
61345;BME280;47216;42.656;23.232;2023-02-12T05:26:47;94830.41;;;1.19;50.39
61345;BME280;47216;42.656;23.232;2023-02-12T05:29:14;94826.41;;;1.16;51.06
61345;BME280;47216;42.656;23.232;2023-02-12T05:31:41;94831.84;;;1.13;51.98
61345;BME280;47216;42.656;23.232;2023-02-12T05:34:09;94828.69;;;1.11;51.98
61345;BME280;47216;42.656;23.232;2023-02-12T05:36:36;94831.25;;;1.03;52.24
61345;BME280;47216;42.656;23.232;2023-02-12T05:39:03;94827.41;;;1.07;52.43
61345;BME280;47216;42.656;23.232;2023-02-12T05:41:29;94845.06;;;1.02;52.62
61345;BME280;47216;42.656;23.232;2023-02-12T05:43:59;94844.13;;;0.95;53.17
61345;BME280;47216;42.656;23.232;2023-02-12T05:46:26;94843.78;;;0.90;53.71
61345;BME280;47216;42.656;23.232;2023-02-12T05:48:52;94844.91;;;0.95;53.87
61345;BME280;47216;42.656;23.232;2023-02-12T05:51:21;94848.63;;;0.84;54.11
61345;BME280;47216;42.656;23.232;2023-02-12T05:53:48;94837.06;;;0.80;55.88
61345;BME280;47216;42.656;23.232;2023-02-12T05:56:15;94848.16;;;0.81;56.55
61345;BME280;47216;42.656;23.232;2023-02-12T05:58:43;94853.78;;;0.76;57.28
61345;BME280;47216;42.656;23.232;2023-02-12T06:01:11;94850.22;;;0.77;57.25
61345;BME280;47216;42.656;23.232;2023-02-12T06:03:38;94850.22;;;0.77;57.48
61345;BME280;47216;42.656;23.232;2023-02-12T06:06:04;94858.72;;;0.86;57.98
61345;BME280;47216;42.656;23.232;2023-02-12T06:08:32;94843.81;;;0.81;58.09
61345;BME280;47216;42.656;23.232;2023-02-12T06:11:00;94854.06;;;0.90;58.48
61345;BME280;47216;42.656;23.232;2023-02-12T06:13:27;94860.81;;;0.82;58.85
61345;BME280;47216;42.656;23.232;2023-02-12T06:15:53;94850.53;;;0.82;58.85
61345;BME280;47216;42.656;23.232;2023-02-12T06:18:20;94850.88;;;0.79;59.44
61345;BME280;47216;42.656;23.232;2023-02-12T06:20:47;94859.06;;;0.75;60.01
61345;BME280;47216;42.656;23.232;2023-02-12T06:23:13;94853.44;;;0.79;60.33
61345;BME280;47216;42.656;23.232;2023-02-12T06:25:41;94859.38;;;0.80;60.56
61345;BME280;47216;42.656;23.232;2023-02-12T06:28:07;94847.66;;;0.69;61.34
61345;BME280;47216;42.656;23.232;2023-02-12T06:30:34;94849.75;;;0.57;62.50
61345;BME280;47216;42.656;23.232;2023-02-12T06:33:00;94851.50;;;0.40;63.46
61345;BME280;47216;42.656;23.232;2023-02-12T06:35:27;94849.44;;;0.44;64.31
61345;BME280;47216;42.656;23.232;2023-02-12T06:37:53;94851.50;;;0.40;64.83
61345;BME280;47216;42.656;23.232;2023-02-12T06:40:20;94844.94;;;0.38;65.51
61345;BME280;47216;42.656;23.232;2023-02-12T06:42:48;94848.13;;;0.32;65.72
61345;BME280;47216;42.656;23.232;2023-02-12T06:45:14;94850.88;;;0.38;65.61
61345;BME280;47216;42.656;23.232;2023-02-12T06:47:41;94847.34;;;0.48;66.08
61345;BME280;47216;42.656;23.232;2023-02-12T06:50:08;94842.22;;;0.39;66.66
61345;BME280;47216;42.656;23.232;2023-02-12T06:52:34;94843.81;;;0.40;66.51
61345;BME280;47216;42.656;23.232;2023-02-12T06:55:01;94840.94;;;0.35;66.67
61345;BME280;47216;42.656;23.232;2023-02-12T06:57:27;94845.09;;;0.61;65.38
61345;BME280;47216;42.656;23.232;2023-02-12T06:59:55;94847.81;;;0.76;64.69
61345;BME280;47216;42.656;23.232;2023-02-12T07:02:22;94846.88;;;0.77;64.45
61345;BME280;47216;42.656;23.232;2023-02-12T07:04:48;94853.75;;;0.84;64.19
61345;BME280;47216;42.656;23.232;2023-02-12T07:07:15;94848.28;;;0.88;63.89
61345;BME280;47216;42.656;23.232;2023-02-12T07:09:41;94847.50;;;0.95;63.85
61345;BME280;47216;42.656;23.232;2023-02-12T07:12:08;94843.44;;;1.01;63.78
61345;BME280;47216;42.656;23.232;2023-02-12T07:14:34;94837.66;;;1.07;63.08
61345;BME280;47216;42.656;23.232;2023-02-12T07:17:02;94834.41;;;1.21;62.69
61345;BME280;47216;42.656;23.232;2023-02-12T07:19:29;94839.22;;;1.24;62.51
61345;BME280;47216;42.656;23.232;2023-02-12T07:21:56;94832.19;;;1.18;62.67
61345;BME280;47216;42.656;23.232;2023-02-12T07:24:22;94831.19;;;1.28;62.58
61345;BME280;47216;42.656;23.232;2023-02-12T07:26:49;94844.03;;;1.28;62.66
61345;BME280;47216;42.656;23.232;2023-02-12T07:29:15;94843.38;;;1.34;63.01
61345;BME280;47216;42.656;23.232;2023-02-12T07:31:42;94838.50;;;1.47;62.68
61345;BME280;47216;42.656;23.232;2023-02-12T07:34:10;94834.50;;;1.44;61.91
61345;BME280;47216;42.656;23.232;2023-02-12T07:36:36;94847.84;;;1.48;62.26
61345;BME280;47216;42.656;23.232;2023-02-12T07:39:03;94834.72;;;1.35;62.50
61345;BME280;47216;42.656;23.232;2023-02-12T07:41:30;94845.13;;;1.41;62.28
61345;BME280;47216;42.656;23.232;2023-02-12T07:43:58;94843.00;;;1.53;61.91
61345;BME280;47216;42.656;23.232;2023-02-12T07:46:25;94846.16;;;1.63;61.38
61345;BME280;47216;42.656;23.232;2023-02-12T07:48:54;94857.34;;;1.79;60.96
61345;BME280;47216;42.656;23.232;2023-02-12T07:51:22;94857.25;;;1.95;60.79
61345;BME280;47216;42.656;23.232;2023-02-12T07:53:49;94856.63;;;1.93;60.37
61345;BME280;47216;42.656;23.232;2023-02-12T07:56:16;94862.88;;;1.99;59.65
61345;BME280;47216;42.656;23.232;2023-02-12T07:58:44;94858.19;;;2.02;59.52
61345;BME280;47216;42.656;23.232;2023-02-12T08:01:12;94863.59;;;2.16;60.82
61345;BME280;47216;42.656;23.232;2023-02-12T08:03:39;94871.03;;;2.34;61.16
61345;BME280;47216;42.656;23.232;2023-02-12T08:06:06;94870.69;;;2.37;60.46
61345;BME280;47216;42.656;23.232;2023-02-12T08:08:34;94870.47;;;2.46;59.36
61345;BME280;47216;42.656;23.232;2023-02-12T08:11:03;94874.13;;;2.52;59.95
61345;BME280;47216;42.656;23.232;2023-02-12T08:13:30;94864.91;;;2.58;58.62
61345;BME280;47216;42.656;23.232;2023-02-12T08:15:58;94864.88;;;2.66;58.73
61345;BME280;47216;42.656;23.232;2023-02-12T08:18:26;94870.91;;;2.73;58.60
61345;BME280;47216;42.656;23.232;2023-02-12T08:20:53;94869.78;;;2.76;58.81
61345;BME280;47216;42.656;23.232;2023-02-12T08:23:20;94873.41;;;2.81;58.49
61345;BME280;47216;42.656;23.232;2023-02-12T08:25:48;94873.41;;;2.81;58.57
61345;BME280;47216;42.656;23.232;2023-02-12T08:28:14;94885.34;;;2.82;59.38
61345;BME280;47216;42.656;23.232;2023-02-12T08:30:41;94882.22;;;2.87;58.97
61345;BME280;47216;42.656;23.232;2023-02-12T08:33:07;94891.56;;;2.88;58.54
61345;BME280;47216;42.656;23.232;2023-02-12T08:35:34;94883.72;;;2.81;58.99
61345;BME280;47216;42.656;23.232;2023-02-12T08:38:00;94884.59;;;2.73;59.27
61345;BME280;47216;42.656;23.232;2023-02-12T08:40:27;94890.59;;;2.66;59.19
61345;BME280;47216;42.656;23.232;2023-02-12T08:42:55;94898.16;;;2.67;59.45
61345;BME280;47216;42.656;23.232;2023-02-12T08:45:21;94897.88;;;2.62;59.07
61345;BME280;47216;42.656;23.232;2023-02-12T08:47:48;94906.44;;;2.55;59.66
61345;BME280;47216;42.656;23.232;2023-02-12T08:50:14;94905.13;;;2.59;59.53
61345;BME280;47216;42.656;23.232;2023-02-12T08:52:41;94915.38;;;2.67;60.37
61345;BME280;47216;42.656;23.232;2023-02-12T08:55:07;94911.28;;;2.72;62.15
61345;BME280;47216;42.656;23.232;2023-02-12T08:57:34;94908.56;;;2.74;62.19
61345;BME280;47216;42.656;23.232;2023-02-12T09:00:02;94916.56;;;2.79;62.45
61345;BME280;47216;42.656;23.232;2023-02-12T09:02:29;94922.63;;;2.86;61.12
61345;BME280;47216;42.656;23.232;2023-02-12T09:04:55;94927.44;;;2.89;61.88
61345;BME280;47216;42.656;23.232;2023-02-12T09:07:22;94924.69;;;2.91;62.08
61345;BME280;47216;42.656;23.232;2023-02-12T09:09:48;94924.88;;;2.89;61.75
61345;BME280;47216;42.656;23.232;2023-02-12T09:12:15;94927.44;;;2.89;60.88
61345;BME280;47216;42.656;23.232;2023-02-12T09:14:41;94934.19;;;2.90;62.66
61345;BME280;47216;42.656;23.232;2023-02-12T09:17:09;94937.41;;;2.92;63.76
61345;BME280;47216;42.656;23.232;2023-02-12T09:19:36;94935.41;;;2.80;62.34
61345;BME280;47216;42.656;23.232;2023-02-12T09:22:02;94943.34;;;2.70;61.34
61345;BME280;47216;42.656;23.232;2023-02-12T09:24:29;94954.28;;;2.72;62.87
61345;BME280;47216;42.656;23.232;2023-02-12T09:26:56;94944.59;;;2.74;62.66
61345;BME280;47216;42.656;23.232;2023-02-12T09:29:22;94953.31;;;2.73;62.76
61345;BME280;47216;42.656;23.232;2023-02-12T09:31:49;94946.94;;;2.61;61.75
61345;BME280;47216;42.656;23.232;2023-02-12T09:34:17;94942.44;;;2.63;62.55
61345;BME280;47216;42.656;23.232;2023-02-12T09:36:43;94938.13;;;2.55;62.25
61345;BME280;47216;42.656;23.232;2023-02-12T09:39:10;94935.09;;;2.51;61.75
61345;BME280;47216;42.656;23.232;2023-02-12T09:41:41;94942.81;;;2.51;62.04
61345;BME280;47216;42.656;23.232;2023-02-12T09:44:14;94937.97;;;2.57;62.64
61345;BME280;47216;42.656;23.232;2023-02-12T09:46:44;94947.00;;;2.52;62.92
61345;BME280;47216;42.656;23.232;2023-02-12T09:49:14;94955.78;;;2.35;62.48
61345;BME280;47216;42.656;23.232;2023-02-12T09:51:47;94960.91;;;2.35;62.26
61345;BME280;47216;42.656;23.232;2023-02-12T09:54:18;94947.50;;;2.17;63.76
61345;BME280;47216;42.656;23.232;2023-02-12T09:56:47;94957.34;;;2.13;64.14
61345;BME280;47216;42.656;23.232;2023-02-12T09:59:17;94961.66;;;2.13;63.79
61345;BME280;47216;42.656;23.232;2023-02-12T10:01:47;94962.31;;;2.15;63.16
61345;BME280;47216;42.656;23.232;2023-02-12T10:04:14;94961.56;;;1.98;63.94
61345;BME280;47216;42.656;23.232;2023-02-12T10:06:42;94967.16;;;2.09;64.02
61345;BME280;47216;42.656;23.232;2023-02-12T10:09:26;94951.81;;;2.24;65.69
61345;BME280;47216;42.656;23.232;2023-02-12T10:12:00;94955.91;;;2.42;65.18
61345;BME280;47216;42.656;23.232;2023-02-12T10:17:17;94961.19;;;2.48;63.51
61345;BME280;47216;42.656;23.232;2023-02-12T10:19:52;94967.91;;;2.49;63.91
61345;BME280;47216;42.656;23.232;2023-02-12T10:22:26;94959.03;;;2.60;63.56
61345;BME280;47216;42.656;23.232;2023-02-12T10:25:02;94953.84;;;2.68;63.02
61345;BME280;47216;42.656;23.232;2023-02-12T10:27:35;94947.53;;;2.71;62.81
61345;BME280;47216;42.656;23.232;2023-02-12T10:30:03;94942.66;;;2.76;63.53
61345;BME280;47216;42.656;23.232;2023-02-12T10:32:39;94943.34;;;2.70;62.65
61345;BME280;47216;42.656;23.232;2023-02-12T10:35:11;94938.00;;;2.80;64.31
61345;BME280;47216;42.656;23.232;2023-02-12T10:37:39;94937.78;;;2.81;63.73
61345;BME280;47216;42.656;23.232;2023-02-12T10:40:13;94942.28;;;2.87;63.07
61345;BME280;47216;42.656;23.232;2023-02-12T10:42:41;94956.75;;;2.88;62.99
61345;BME280;47216;42.656;23.232;2023-02-12T10:45:11;94945.75;;;2.94;63.83
61345;BME280;47216;42.656;23.232;2023-02-12T10:47:38;94944.72;;;3.04;64.17
61345;BME280;47216;42.656;23.232;2023-02-12T10:50:12;94950.88;;;3.18;64.17
61345;BME280;47216;42.656;23.232;2023-02-12T10:52:44;94952.25;;;3.28;64.22
61345;BME280;47216;42.656;23.232;2023-02-12T10:57:55;94959.13;;;3.51;62.76
61345;BME280;47216;42.656;23.232;2023-02-12T11:02:58;94952.97;;;3.37;60.97
61345;BME280;47216;42.656;23.232;2023-02-12T11:05:26;94944.38;;;2.84;62.81
61345;BME280;47216;42.656;23.232;2023-02-12T11:07:54;94940.75;;;2.93;64.00
61345;BME280;47216;42.656;23.232;2023-02-12T11:10:24;94945.97;;;3.08;62.67
61345;BME280;47216;42.656;23.232;2023-02-12T11:12:52;94947.56;;;3.09;63.17
61345;BME280;47216;42.656;23.232;2023-02-12T11:15:21;94948.38;;;2.86;63.34
61345;BME280;47216;42.656;23.232;2023-02-12T11:17:54;94954.47;;;2.93;63.94
61345;BME280;47216;42.656;23.232;2023-02-12T11:20:22;94957.13;;;3.00;63.28
61345;BME280;47216;42.656;23.232;2023-02-12T11:22:50;94952.56;;;3.10;63.92
61345;BME280;47216;42.656;23.232;2023-02-12T11:25:17;94942.63;;;3.22;62.93
61345;BME280;47216;42.656;23.232;2023-02-12T11:27:44;94952.78;;;3.39;63.48
61345;BME280;47216;42.656;23.232;2023-02-12T11:30:12;94950.44;;;3.52;63.48
61345;BME280;47216;42.656;23.232;2023-02-12T11:32:40;94950.44;;;3.67;63.17
61345;BME280;47216;42.656;23.232;2023-02-12T11:35:11;94948.84;;;3.81;61.67
61345;BME280;47216;42.656;23.232;2023-02-12T11:37:38;94943.41;;;3.75;61.83
61345;BME280;47216;42.656;23.232;2023-02-12T11:40:08;94948.81;;;3.51;61.87
61345;BME280;47216;42.656;23.232;2023-02-12T11:42:39;94955.38;;;3.53;62.65
61345;BME280;47216;42.656;23.232;2023-02-12T11:45:14;94955.38;;;3.53;61.81
61345;BME280;47216;42.656;23.232;2023-02-12T11:47:43;94950.97;;;3.62;61.42
61345;BME280;47216;42.656;23.232;2023-02-12T11:50:15;94946.06;;;3.67;62.05
61345;BME280;47216;42.656;23.232;2023-02-12T11:52:46;94945.91;;;3.69;61.58
61345;BME280;47216;42.656;23.232;2023-02-12T11:55:17;94941.19;;;3.72;61.78
61345;BME280;47216;42.656;23.232;2023-02-12T11:57:46;94943.03;;;3.78;62.24
61345;BME280;47216;42.656;23.232;2023-02-12T12:00:15;94944.28;;;3.83;61.43
61345;BME280;47216;42.656;23.232;2023-02-12T12:02:44;94953.81;;;3.97;62.78
61345;BME280;47216;42.656;23.232;2023-02-12T12:05:14;94943.66;;;4.10;61.41
61345;BME280;47216;42.656;23.232;2023-02-12T12:07:44;94946.16;;;4.18;60.49
61345;BME280;47216;42.656;23.232;2023-02-12T12:10:14;94937.34;;;4.28;59.32
61345;BME280;47216;42.656;23.232;2023-02-12T12:12:44;94943.53;;;4.33;58.93
61345;BME280;47216;42.656;23.232;2023-02-12T12:15:14;94957.25;;;4.34;59.84
61345;BME280;47216;42.656;23.232;2023-02-12T12:18:03;94957.06;;;4.20;59.43
61345;BME280;47216;42.656;23.232;2023-02-12T12:20:51;94959.41;;;4.15;59.61
61345;BME280;47216;42.656;23.232;2023-02-12T12:23:20;94963.97;;;3.98;60.08
61345;BME280;47216;42.656;23.232;2023-02-12T12:25:51;94959.84;;;4.04;60.39
61345;BME280;47216;42.656;23.232;2023-02-12T12:28:24;94955.75;;;3.95;60.13
61345;BME280;47216;42.656;23.232;2023-02-12T12:30:56;94966.25;;;4.08;60.07
61345;BME280;47216;42.656;23.232;2023-02-12T12:33:28;94966.88;;;3.81;59.93
61345;BME280;47216;42.656;23.232;2023-02-12T12:36:04;94962.34;;;3.68;60.05
61345;BME280;47216;42.656;23.232;2023-02-12T12:38:34;94964.84;;;3.76;60.55
61345;BME280;47216;42.656;23.232;2023-02-12T12:41:07;94965.72;;;3.83;60.36
61345;BME280;47216;42.656;23.232;2023-02-12T12:43:41;94962.09;;;3.77;59.98
61345;BME280;47216;42.656;23.232;2023-02-12T12:46:16;94966.81;;;3.89;60.15
61345;BME280;47216;42.656;23.232;2023-02-12T12:49:03;94972.25;;;3.94;60.86
61345;BME280;47216;42.656;23.232;2023-02-12T12:51:40;94981.22;;;3.98;59.72
61345;BME280;47216;42.656;23.232;2023-02-12T12:54:18;94978.66;;;3.98;59.43
61345;BME280;47216;42.656;23.232;2023-02-12T12:56:56;94983.88;;;3.90;60.76
61345;BME280;47216;42.656;23.232;2023-02-12T13:02:20;94989.31;;;3.65;60.43
61345;BME280;47216;42.656;23.232;2023-02-12T13:08:11;94993.22;;;3.61;60.81
61345;BME280;47216;42.656;23.232;2023-02-12T13:10:43;95001.22;;;3.66;61.50
61345;BME280;47216;42.656;23.232;2023-02-12T13:13:15;95000.75;;;3.63;61.64
61345;BME280;47216;42.656;23.232;2023-02-12T13:15:45;95007.16;;;3.67;60.81
61345;BME280;47216;42.656;23.232;2023-02-12T13:18:16;95008.53;;;3.77;60.70
61345;BME280;47216;42.656;23.232;2023-02-12T13:20:46;95004.25;;;3.85;61.62
61345;BME280;47216;42.656;23.232;2023-02-12T13:23:18;95004.78;;;3.95;60.99
61345;BME280;47216;42.656;23.232;2023-02-12T13:25:50;95006.66;;;4.01;61.11
61345;BME280;47216;42.656;23.232;2023-02-12T13:28:22;95003.03;;;4.10;60.30